Harrison County Airport


Codes: KASL/ASL
Name: Harrison County Airport
City: Marshall
Country: United States
Elevation: 357 ft.
Wikipedia:

Photos at Harrison County Airport


   Photos courtesy of SpottingLog. You can add your own sightings and photos by signing up for a free trial today.



No photos found.

Weather at Harrison County Airport


Time (UTC)DescriptionTempratureWindCloud coverageVisibilityPressureHumidity
16-Jun-2024 00:00Clear Sky33°C4 mph, SE0%10000m1011hPa55%
16-Jun-2024 03:00Few Clouds31°C4 mph, SE20%10000m1011hPa59%
16-Jun-2024 06:00Scattered Clouds28°C7 mph, S40%10000m1012hPa65%
16-Jun-2024 09:00Few Clouds23°C4 mph, S15%10000m1012hPa82%
16-Jun-2024 12:00Clear Sky22°C4 mph, S8%10000m1013hPa87%
16-Jun-2024 15:00Clear Sky29°C4 mph, S0%10000m1013hPa63%
16-Jun-2024 18:00Clear Sky33°C7 mph, SE0%10000m1013hPa44%
16-Jun-2024 21:00Clear Sky35°C9 mph, SE1%10000m1011hPa40%
17-Jun-2024 00:00Scattered Clouds30°C4 mph, SE26%10000m1010hPa65%
17-Jun-2024 03:00Clear Sky27°C7 mph, SE5%10000m1011hPa63%
17-Jun-2024 06:00Clear Sky25°C7 mph, SE4%10000m1012hPa80%
17-Jun-2024 09:00Clear Sky22°C4 mph, SE0%10000m1012hPa96%
17-Jun-2024 12:00Clear Sky22°C4 mph, SE9%10000m1012hPa97%
17-Jun-2024 15:00Scattered Clouds28°C9 mph, SE35%10000m1013hPa70%
17-Jun-2024 18:00Light Rain30°C9 mph, SE58%10000m1012hPa59%
17-Jun-2024 21:00Overcast Clouds30°C9 mph, SE100%10000m1011hPa62%
18-Jun-2024 00:00Light Rain26°C11 mph, SE98%10000m1011hPa82%
18-Jun-2024 03:00Overcast Clouds23°C11 mph, SE100%10000m1013hPa92%
18-Jun-2024 06:00Light Rain23°C9 mph, SE100%10000m1013hPa91%
18-Jun-2024 09:00Overcast Clouds22°C9 mph, SE100%10000m1012hPa90%
18-Jun-2024 12:00Overcast Clouds23°C9 mph, SE100%10000m1012hPa86%
18-Jun-2024 15:00Overcast Clouds25°C11 mph, SE100%10000m1014hPa80%
18-Jun-2024 18:00Light Rain26°C11 mph, SE100%10000m1014hPa79%
18-Jun-2024 21:00Light Rain25°C9 mph, SE100%10000m1013hPa76%
19-Jun-2024 00:00Overcast Clouds24°C9 mph, SE100%10000m1013hPa80%
19-Jun-2024 03:00Overcast Clouds23°C9 mph, E100%10000m1015hPa88%
19-Jun-2024 06:00Overcast Clouds22°C9 mph, E100%10000m1015hPa90%
19-Jun-2024 09:00Light Rain22°C7 mph, E100%10000m1015hPa98%
19-Jun-2024 12:00Moderate Rain22°C7 mph, N100%0m1015hPa99%
19-Jun-2024 15:00Moderate Rain22°C9 mph, E100%155m1017hPa99%
19-Jun-2024 18:00Moderate Rain22°C9 mph, NE100%10000m1017hPa98%
19-Jun-2024 21:00Light Rain22°C9 mph, NE100%9522m1017hPa98%
20-Jun-2024 00:00Moderate Rain21°C11 mph, NE100%9429m1018hPa98%
20-Jun-2024 03:00Light Rain21°C9 mph, NE100%10000m1019hPa98%
20-Jun-2024 06:00Light Rain21°C7 mph, NE100%10000m1019hPa99%
20-Jun-2024 09:00Overcast Clouds20°C7 mph, NE100%10000m1018hPa98%
20-Jun-2024 12:00Overcast Clouds20°C7 mph, NE100%10000m1019hPa98%
20-Jun-2024 15:00Overcast Clouds25°C9 mph, E100%10000m1020hPa78%
20-Jun-2024 18:00Overcast Clouds30°C9 mph, E99%10000m1019hPa53%
20-Jun-2024 21:00Broken Clouds33°C7 mph, E70%10000m1017hPa45%